sensor_id;sensor_type;location;lat;lon;timestamp;P1;durP1;ratioP1;P2;durP2;ratioP2
54555;SDS011;57291;37.520;15.106;2022-12-29T00:00:04;26.08;;;13.55;;
54555;SDS011;57291;37.520;15.106;2022-12-29T00:02:39;23.58;;;13.65;;
54555;SDS011;57291;37.520;15.106;2022-12-29T00:05:07;24.35;;;14.07;;
54555;SDS011;57291;37.520;15.106;2022-12-29T00:07:35;23.27;;;13.50;;
54555;SDS011;57291;37.520;15.106;2022-12-29T00:10:02;25.63;;;13.88;;
54555;SDS011;57291;37.520;15.106;2022-12-29T00:12:30;20.52;;;13.65;;
54555;SDS011;57291;37.520;15.106;2022-12-29T00:15:17;26.83;;;14.68;;
54555;SDS011;57291;37.520;15.106;2022-12-29T00:18:02;25.65;;;15.05;;
54555;SDS011;57291;37.520;15.106;2022-12-29T00:20:33;25.17;;;14.00;;
54555;SDS011;57291;37.520;15.106;2022-12-29T00:23:20;25.63;;;16.17;;
54555;SDS011;57291;37.520;15.106;2022-12-29T00:26:11;25.77;;;14.10;;
54555;SDS011;57291;37.520;15.106;2022-12-29T00:28:59;26.40;;;15.45;;
54555;SDS011;57291;37.520;15.106;2022-12-29T00:31:44;25.25;;;14.57;;
54555;SDS011;57291;37.520;15.106;2022-12-29T00:34:30;26.15;;;14.38;;
54555;SDS011;57291;37.520;15.106;2022-12-29T00:37:16;23.38;;;14.30;;
54555;SDS011;57291;37.520;15.106;2022-12-29T00:39:43;23.92;;;14.38;;
54555;SDS011;57291;37.520;15.106;2022-12-29T00:42:30;25.42;;;15.20;;
54555;SDS011;57291;37.520;15.106;2022-12-29T00:45:16;25.27;;;15.35;;
54555;SDS011;57291;37.520;15.106;2022-12-29T00:47:43;27.48;;;15.73;;
54555;SDS011;57291;37.520;15.106;2022-12-29T00:50:10;25.70;;;14.05;;
54555;SDS011;57291;37.520;15.106;2022-12-29T00:52:37;27.27;;;14.32;;
54555;SDS011;57291;37.520;15.106;2022-12-29T00:55:04;24.83;;;14.68;;
54555;SDS011;57291;37.520;15.106;2022-12-29T00:57:32;22.70;;;14.02;;
54555;SDS011;57291;37.520;15.106;2022-12-29T00:59:59;24.45;;;14.23;;
54555;SDS011;57291;37.520;15.106;2022-12-29T01:02:28;23.52;;;14.20;;
54555;SDS011;57291;37.520;15.106;2022-12-29T01:04:55;25.55;;;14.27;;
54555;SDS011;57291;37.520;15.106;2022-12-29T01:07:23;21.27;;;12.55;;
54555;SDS011;57291;37.520;15.106;2022-12-29T01:09:50;20.80;;;13.13;;
54555;SDS011;57291;37.520;15.106;2022-12-29T01:12:35;24.42;;;13.13;;
54555;SDS011;57291;37.520;15.106;2022-12-29T01:15:09;23.80;;;13.18;;
54555;SDS011;57291;37.520;15.106;2022-12-29T01:17:38;23.50;;;13.40;;
54555;SDS011;57291;37.520;15.106;2022-12-29T01:20:05;20.88;;;13.65;;
54555;SDS011;57291;37.520;15.106;2022-12-29T01:22:34;26.92;;;14.18;;
54555;SDS011;57291;37.520;15.106;2022-12-29T01:25:01;22.58;;;13.48;;
54555;SDS011;57291;37.520;15.106;2022-12-29T01:27:29;22.65;;;13.07;;
54555;SDS011;57291;37.520;15.106;2022-12-29T01:29:59;21.02;;;12.90;;
54555;SDS011;57291;37.520;15.106;2022-12-29T01:32:26;22.13;;;12.30;;
54555;SDS011;57291;37.520;15.106;2022-12-29T01:34:53;20.83;;;12.75;;
54555;SDS011;57291;37.520;15.106;2022-12-29T01:37:20;23.25;;;13.35;;
54555;SDS011;57291;37.520;15.106;2022-12-29T01:39:47;21.13;;;12.48;;
54555;SDS011;57291;37.520;15.106;2022-12-29T01:42:18;19.75;;;11.57;;
54555;SDS011;57291;37.520;15.106;2022-12-29T01:44:53;20.20;;;11.73;;
54555;SDS011;57291;37.520;15.106;2022-12-29T01:47:29;18.52;;;11.50;;
54555;SDS011;57291;37.520;15.106;2022-12-29T01:52:33;21.08;;;11.48;;
54555;SDS011;57291;37.520;15.106;2022-12-29T01:55:04;17.67;;;10.55;;
54555;SDS011;57291;37.520;15.106;2022-12-29T01:57:33;18.58;;;11.50;;
54555;SDS011;57291;37.520;15.106;2022-12-29T02:00:05;21.40;;;11.10;;
54555;SDS011;57291;37.520;15.106;2022-12-29T02:02:40;16.42;;;10.75;;
54555;SDS011;57291;37.520;15.106;2022-12-29T02:05:21;19.52;;;10.95;;
54555;SDS011;57291;37.520;15.106;2022-12-29T02:07:54;19.92;;;11.20;;
54555;SDS011;57291;37.520;15.106;2022-12-29T02:10:21;22.75;;;11.02;;
54555;SDS011;57291;37.520;15.106;2022-12-29T02:12:51;17.17;;;10.55;;
54555;SDS011;57291;37.520;15.106;2022-12-29T02:15:21;19.98;;;11.00;;
54555;SDS011;57291;37.520;15.106;2022-12-29T02:24:48;17.95;;;9.20;;
54555;SDS011;57291;37.520;15.106;2022-12-29T02:36:19;17.35;;;10.40;;
54555;SDS011;57291;37.520;15.106;2022-12-29T02:41:49;18.75;;;10.32;;
54555;SDS011;57291;37.520;15.106;2022-12-29T02:47:21;18.92;;;11.00;;
54555;SDS011;57291;37.520;15.106;2022-12-29T02:49:37;17.40;;;9.20;;
54555;SDS011;57291;37.520;15.106;2022-12-29T02:52:30;18.35;;;9.70;;
54555;SDS011;57291;37.520;15.106;2022-12-29T02:55:13;16.85;;;9.02;;
54555;SDS011;57291;37.520;15.106;2022-12-29T02:57:40;17.55;;;9.63;;
54555;SDS011;57291;37.520;15.106;2022-12-29T03:00:08;14.32;;;9.00;;
54555;SDS011;57291;37.520;15.106;2022-12-29T03:05:37;16.33;;;9.10;;
54555;SDS011;57291;37.520;15.106;2022-12-29T03:11:05;17.42;;;9.52;;
54555;SDS011;57291;37.520;15.106;2022-12-29T03:14:14;15.25;;;9.68;;
54555;SDS011;57291;37.520;15.106;2022-12-29T03:17:26;13.95;;;9.45;;
54555;SDS011;57291;37.520;15.106;2022-12-29T03:20:04;16.98;;;9.85;;
54555;SDS011;57291;37.520;15.106;2022-12-29T03:22:41;19.70;;;9.73;;
54555;SDS011;57291;37.520;15.106;2022-12-29T03:25:25;18.00;;;9.70;;
54555;SDS011;57291;37.520;15.106;2022-12-29T03:28:01;17.20;;;9.00;;
54555;SDS011;57291;37.520;15.106;2022-12-29T03:30:38;19.73;;;10.10;;
54555;SDS011;57291;37.520;15.106;2022-12-29T03:33:09;15.77;;;9.38;;
54555;SDS011;57291;37.520;15.106;2022-12-29T03:35:40;15.90;;;9.30;;
54555;SDS011;57291;37.520;15.106;2022-12-29T03:40:52;22.20;;;10.57;;
54555;SDS011;57291;37.520;15.106;2022-12-29T03:43:25;20.92;;;10.77;;
54555;SDS011;57291;37.520;15.106;2022-12-29T03:45:54;16.00;;;10.07;;
54555;SDS011;57291;37.520;15.106;2022-12-29T03:48:21;18.77;;;9.68;;
54555;SDS011;57291;37.520;15.106;2022-12-29T03:50:49;17.58;;;9.70;;
54555;SDS011;57291;37.520;15.106;2022-12-29T03:53:17;15.35;;;9.30;;
54555;SDS011;57291;37.520;15.106;2022-12-29T03:55:44;16.95;;;10.27;;
54555;SDS011;57291;37.520;15.106;2022-12-29T03:58:12;18.20;;;10.18;;
54555;SDS011;57291;37.520;15.106;2022-12-29T04:01:18;17.88;;;9.70;;
54555;SDS011;57291;37.520;15.106;2022-12-29T04:03:45;20.48;;;10.20;;
54555;SDS011;57291;37.520;15.106;2022-12-29T04:06:12;18.08;;;9.48;;
54555;SDS011;57291;37.520;15.106;2022-12-29T04:08:48;18.75;;;10.00;;
54555;SDS011;57291;37.520;15.106;2022-12-29T04:11:15;15.60;;;9.43;;
54555;SDS011;57291;37.520;15.106;2022-12-29T04:13:44;15.98;;;9.50;;
54555;SDS011;57291;37.520;15.106;2022-12-29T04:16:15;14.90;;;9.45;;
54555;SDS011;57291;37.520;15.106;2022-12-29T04:18:42;17.42;;;9.90;;
54555;SDS011;57291;37.520;15.106;2022-12-29T04:21:09;16.52;;;9.65;;
54555;SDS011;57291;37.520;15.106;2022-12-29T04:23:39;16.73;;;9.55;;
54555;SDS011;57291;37.520;15.106;2022-12-29T04:26:08;16.48;;;8.75;;
54555;SDS011;57291;37.520;15.106;2022-12-29T04:28:56;12.13;;;8.43;;
54555;SDS011;57291;37.520;15.106;2022-12-29T04:32:01;16.60;;;8.90;;
54555;SDS011;57291;37.520;15.106;2022-12-29T04:34:31;16.48;;;8.50;;
54555;SDS011;57291;37.520;15.106;2022-12-29T04:36:59;17.33;;;9.30;;
54555;SDS011;57291;37.520;15.106;2022-12-29T04:39:27;18.30;;;10.07;;
54555;SDS011;57291;37.520;15.106;2022-12-29T04:41:54;15.68;;;9.50;;
54555;SDS011;57291;37.520;15.106;2022-12-29T04:44:22;15.00;;;9.40;;
54555;SDS011;57291;37.520;15.106;2022-12-29T04:47:07;14.13;;;8.95;;
54555;SDS011;57291;37.520;15.106;2022-12-29T04:50:01;19.13;;;9.77;;
54555;SDS011;57291;37.520;15.106;2022-12-29T04:52:40;18.67;;;9.93;;
54555;SDS011;57291;37.520;15.106;2022-12-29T04:55:09;14.52;;;9.15;;
54555;SDS011;57291;37.520;15.106;2022-12-29T04:57:36;20.30;;;9.25;;
54555;SDS011;57291;37.520;15.106;2022-12-29T05:00:05;20.67;;;9.70;;
54555;SDS011;57291;37.520;15.106;2022-12-29T05:02:35;15.30;;;9.13;;
54555;SDS011;57291;37.520;15.106;2022-12-29T05:05:04;15.60;;;9.57;;
54555;SDS011;57291;37.520;15.106;2022-12-29T05:07:34;15.02;;;10.07;;
54555;SDS011;57291;37.520;15.106;2022-12-29T05:10:01;17.90;;;10.18;;
54555;SDS011;57291;37.520;15.106;2022-12-29T05:12:30;19.42;;;11.00;;
54555;SDS011;57291;37.520;15.106;2022-12-29T05:14:59;16.67;;;11.40;;
54555;SDS011;57291;37.520;15.106;2022-12-29T05:17:26;19.95;;;11.80;;
54555;SDS011;57291;37.520;15.106;2022-12-29T05:19:56;18.83;;;11.48;;
54555;SDS011;57291;37.520;15.106;2022-12-29T05:22:24;18.35;;;11.23;;
54555;SDS011;57291;37.520;15.106;2022-12-29T05:24:54;17.95;;;10.98;;
54555;SDS011;57291;37.520;15.106;2022-12-29T05:27:22;17.02;;;11.82;;
54555;SDS011;57291;37.520;15.106;2022-12-29T05:30:18;16.05;;;11.07;;
54555;SDS011;57291;37.520;15.106;2022-12-29T05:32:45;17.98;;;11.95;;
54555;SDS011;57291;37.520;15.106;2022-12-29T05:35:13;19.50;;;11.68;;
54555;SDS011;57291;37.520;15.106;2022-12-29T05:37:40;17.55;;;11.13;;
54555;SDS011;57291;37.520;15.106;2022-12-29T05:40:07;18.25;;;10.48;;
54555;SDS011;57291;37.520;15.106;2022-12-29T05:42:34;18.08;;;9.45;;
54555;SDS011;57291;37.520;15.106;2022-12-29T05:45:25;17.80;;;9.90;;
54555;SDS011;57291;37.520;15.106;2022-12-29T05:48:00;19.85;;;10.60;;
54555;SDS011;57291;37.520;15.106;2022-12-29T05:50:27;18.70;;;11.95;;
54555;SDS011;57291;37.520;15.106;2022-12-29T05:53:07;16.80;;;10.82;;
54555;SDS011;57291;37.520;15.106;2022-12-29T05:55:36;23.05;;;13.63;;
54555;SDS011;57291;37.520;15.106;2022-12-29T05:58:09;18.35;;;9.75;;
54555;SDS011;57291;37.520;15.106;2022-12-29T06:00:36;14.30;;;9.75;;
54555;SDS011;57291;37.520;15.106;2022-12-29T06:03:04;17.95;;;10.02;;
54555;SDS011;57291;37.520;15.106;2022-12-29T06:05:31;14.70;;;9.65;;
54555;SDS011;57291;37.520;15.106;2022-12-29T06:07:58;15.00;;;8.90;;
54555;SDS011;57291;37.520;15.106;2022-12-29T06:10:26;15.98;;;9.88;;
54555;SDS011;57291;37.520;15.106;2022-12-29T06:13:04;17.13;;;9.63;;
54555;SDS011;57291;37.520;15.106;2022-12-29T06:15:35;17.38;;;10.40;;
54555;SDS011;57291;37.520;15.106;2022-12-29T06:18:06;23.95;;;11.15;;
54555;SDS011;57291;37.520;15.106;2022-12-29T06:20:34;18.98;;;10.02;;
54555;SDS011;57291;37.520;15.106;2022-12-29T06:23:03;17.70;;;9.60;;
54555;SDS011;57291;37.520;15.106;2022-12-29T06:25:31;22.20;;;10.48;;
54555;SDS011;57291;37.520;15.106;2022-12-29T06:28:01;19.40;;;10.60;;
54555;SDS011;57291;37.520;15.106;2022-12-29T06:30:29;16.83;;;9.18;;
54555;SDS011;57291;37.520;15.106;2022-12-29T06:32:58;14.77;;;9.05;;
54555;SDS011;57291;37.520;15.106;2022-12-29T06:35:25;20.10;;;9.60;;
54555;SDS011;57291;37.520;15.106;2022-12-29T06:37:52;18.10;;;9.43;;
54555;SDS011;57291;37.520;15.106;2022-12-29T06:40:22;17.40;;;9.23;;
54555;SDS011;57291;37.520;15.106;2022-12-29T06:43:15;19.35;;;10.18;;
54555;SDS011;57291;37.520;15.106;2022-12-29T06:46:08;16.70;;;9.73;;
54555;SDS011;57291;37.520;15.106;2022-12-29T06:48:35;16.63;;;10.32;;
54555;SDS011;57291;37.520;15.106;2022-12-29T06:51:03;16.73;;;10.32;;
54555;SDS011;57291;37.520;15.106;2022-12-29T06:53:30;17.52;;;9.48;;
54555;SDS011;57291;37.520;15.106;2022-12-29T06:55:57;21.67;;;10.50;;
54555;SDS011;57291;37.520;15.106;2022-12-29T06:58:24;16.55;;;10.35;;
54555;SDS011;57291;37.520;15.106;2022-12-29T07:00:51;16.92;;;11.23;;
54555;SDS011;57291;37.520;15.106;2022-12-29T07:03:18;25.15;;;14.23;;
54555;SDS011;57291;37.520;15.106;2022-12-29T07:05:45;23.30;;;11.10;;
54555;SDS011;57291;37.520;15.106;2022-12-29T07:08:12;17.60;;;10.43;;
54555;SDS011;57291;37.520;15.106;2022-12-29T07:10:40;17.42;;;10.50;;
54555;SDS011;57291;37.520;15.106;2022-12-29T07:13:08;16.77;;;10.63;;
54555;SDS011;57291;37.520;15.106;2022-12-29T07:15:36;14.32;;;9.35;;
54555;SDS011;57291;37.520;15.106;2022-12-29T07:18:03;19.30;;;10.57;;
54555;SDS011;57291;37.520;15.106;2022-12-29T07:20:31;16.52;;;10.25;;
54555;SDS011;57291;37.520;15.106;2022-12-29T07:22:58;15.98;;;10.32;;
54555;SDS011;57291;37.520;15.106;2022-12-29T07:25:25;17.90;;;10.82;;
54555;SDS011;57291;37.520;15.106;2022-12-29T07:27:52;16.00;;;10.05;;
54555;SDS011;57291;37.520;15.106;2022-12-29T07:30:20;21.35;;;9.35;;
54555;SDS011;57291;37.520;15.106;2022-12-29T07:32:47;17.35;;;10.20;;
54555;SDS011;57291;37.520;15.106;2022-12-29T07:35:14;15.02;;;9.30;;
54555;SDS011;57291;37.520;15.106;2022-12-29T07:37:43;15.15;;;8.32;;
54555;SDS011;57291;37.520;15.106;2022-12-29T07:40:10;16.40;;;8.77;;
54555;SDS011;57291;37.520;15.106;2022-12-29T07:42:37;13.40;;;9.13;;
54555;SDS011;57291;37.520;15.106;2022-12-29T07:45:07;14.77;;;8.30;;
54555;SDS011;57291;37.520;15.106;2022-12-29T07:47:47;15.55;;;8.13;;
54555;SDS011;57291;37.520;15.106;2022-12-29T07:50:16;16.15;;;8.30;;
54555;SDS011;57291;37.520;15.106;2022-12-29T07:52:43;13.48;;;8.27;;
54555;SDS011;57291;37.520;15.106;2022-12-29T07:55:11;13.20;;;8.73;;
54555;SDS011;57291;37.520;15.106;2022-12-29T07:57:40;15.10;;;8.80;;
54555;SDS011;57291;37.520;15.106;2022-12-29T08:00:07;17.30;;;10.65;;
54555;SDS011;57291;37.520;15.106;2022-12-29T08:02:39;20.83;;;10.43;;
54555;SDS011;57291;37.520;15.106;2022-12-29T08:05:06;19.65;;;10.27;;
54555;SDS011;57291;37.520;15.106;2022-12-29T08:07:33;24.13;;;11.38;;
54555;SDS011;57291;37.520;15.106;2022-12-29T08:10:01;28.30;;;14.43;;
54555;SDS011;57291;37.520;15.106;2022-12-29T08:12:28;27.73;;;14.23;;
54555;SDS011;57291;37.520;15.106;2022-12-29T08:14:55;24.33;;;14.52;;
54555;SDS011;57291;37.520;15.106;2022-12-29T08:17:22;27.27;;;15.25;;
54555;SDS011;57291;37.520;15.106;2022-12-29T08:19:49;29.83;;;16.00;;
54555;SDS011;57291;37.520;15.106;2022-12-29T08:22:16;27.48;;;15.80;;
54555;SDS011;57291;37.520;15.106;2022-12-29T08:24:43;29.48;;;15.60;;
54555;SDS011;57291;37.520;15.106;2022-12-29T08:27:10;28.50;;;14.40;;
54555;SDS011;57291;37.520;15.106;2022-12-29T08:29:46;26.60;;;15.27;;
54555;SDS011;57291;37.520;15.106;2022-12-29T08:32:14;27.08;;;15.05;;
54555;SDS011;57291;37.520;15.106;2022-12-29T08:34:41;21.40;;;11.82;;
54555;SDS011;57291;37.520;15.106;2022-12-29T08:37:08;24.30;;;11.00;;
54555;SDS011;57291;37.520;15.106;2022-12-29T08:39:35;16.58;;;9.65;;
54555;SDS011;57291;37.520;15.106;2022-12-29T08:42:02;22.60;;;10.60;;
54555;SDS011;57291;37.520;15.106;2022-12-29T08:44:32;18.05;;;10.98;;
54555;SDS011;57291;37.520;15.106;2022-12-29T08:46:59;18.65;;;12.07;;
54555;SDS011;57291;37.520;15.106;2022-12-29T08:49:26;17.80;;;11.10;;
54555;SDS011;57291;37.520;15.106;2022-12-29T08:51:53;21.58;;;11.18;;
54555;SDS011;57291;37.520;15.106;2022-12-29T08:54:20;19.67;;;10.55;;
54555;SDS011;57291;37.520;15.106;2022-12-29T08:56:48;17.33;;;10.88;;
54555;SDS011;57291;37.520;15.106;2022-12-29T08:59:16;18.52;;;10.80;;
54555;SDS011;57291;37.520;15.106;2022-12-29T09:01:46;18.55;;;9.93;;
54555;SDS011;57291;37.520;15.106;2022-12-29T09:04:13;15.55;;;9.65;;
54555;SDS011;57291;37.520;15.106;2022-12-29T09:06:44;16.63;;;9.80;;
54555;SDS011;57291;37.520;15.106;2022-12-29T09:09:12;16.73;;;9.25;;
54555;SDS011;57291;37.520;15.106;2022-12-29T09:11:39;13.60;;;7.97;;
54555;SDS011;57291;37.520;15.106;2022-12-29T09:14:06;16.52;;;7.32;;
54555;SDS011;57291;37.520;15.106;2022-12-29T09:16:34;13.18;;;6.70;;
54555;SDS011;57291;37.520;15.106;2022-12-29T09:19:01;14.98;;;7.78;;
54555;SDS011;57291;37.520;15.106;2022-12-29T09:21:29;15.43;;;9.40;;
54555;SDS011;57291;37.520;15.106;2022-12-29T09:23:56;13.40;;;9.18;;
54555;SDS011;57291;37.520;15.106;2022-12-29T09:26:23;20.58;;;10.18;;
54555;SDS011;57291;37.520;15.106;2022-12-29T09:28:50;19.38;;;10.85;;
54555;SDS011;57291;37.520;15.106;2022-12-29T09:31:17;16.85;;;10.18;;
54555;SDS011;57291;37.520;15.106;2022-12-29T09:33:44;24.60;;;11.75;;
54555;SDS011;57291;37.520;15.106;2022-12-29T09:36:11;21.88;;;12.60;;
54555;SDS011;57291;37.520;15.106;2022-12-29T09:38:38;22.27;;;11.98;;
54555;SDS011;57291;37.520;15.106;2022-12-29T09:41:18;19.60;;;12.27;;
54555;SDS011;57291;37.520;15.106;2022-12-29T09:44:00;21.50;;;12.85;;
54555;SDS011;57291;37.520;15.106;2022-12-29T09:46:53;23.38;;;12.73;;
54555;SDS011;57291;37.520;15.106;2022-12-29T09:51:59;22.45;;;12.63;;
54555;SDS011;57291;37.520;15.106;2022-12-29T09:54:46;18.40;;;11.43;;
54555;SDS011;57291;37.520;15.106;2022-12-29T10:00:01;18.13;;;10.98;;
54555;SDS011;57291;37.520;15.106;2022-12-29T10:05:18;17.90;;;10.00;;
54555;SDS011;57291;37.520;15.106;2022-12-29T10:07:55;18.42;;;9.30;;
54555;SDS011;57291;37.520;15.106;2022-12-29T10:10:48;14.70;;;9.20;;
54555;SDS011;57291;37.520;15.106;2022-12-29T10:16:52;14.65;;;8.82;;
54555;SDS011;57291;37.520;15.106;2022-12-29T10:22:27;17.00;;;8.15;;
54555;SDS011;57291;37.520;15.106;2022-12-29T10:24:59;17.13;;;7.65;;
54555;SDS011;57291;37.520;15.106;2022-12-29T10:27:30;17.23;;;7.53;;
54555;SDS011;57291;37.520;15.106;2022-12-29T10:29:59;15.63;;;8.02;;
54555;SDS011;57291;37.520;15.106;2022-12-29T10:32:34;12.82;;;7.07;;
54555;SDS011;57291;37.520;15.106;2022-12-29T10:35:09;12.20;;;6.95;;
54555;SDS011;57291;37.520;15.106;2022-12-29T10:43:47;12.15;;;6.85;;
54555;SDS011;57291;37.520;15.106;2022-12-29T10:46:38;11.13;;;5.60;;
54555;SDS011;57291;37.520;15.106;2022-12-29T10:49:06;10.90;;;6.25;;
54555;SDS011;57291;37.520;15.106;2022-12-29T10:51:47;11.70;;;6.30;;
54555;SDS011;57291;37.520;15.106;2022-12-29T10:54:23;14.18;;;6.80;;
54555;SDS011;57291;37.520;15.106;2022-12-29T10:59:59;11.63;;;6.10;;
54555;SDS011;57291;37.520;15.106;2022-12-29T11:02:37;12.85;;;6.55;;
54555;SDS011;57291;37.520;15.106;2022-12-29T11:08:01;13.10;;;6.45;;
54555;SDS011;57291;37.520;15.106;2022-12-29T11:13:04;10.52;;;5.38;;
54555;SDS011;57291;37.520;15.106;2022-12-29T11:15:41;12.70;;;5.97;;
54555;SDS011;57291;37.520;15.106;2022-12-29T11:18:22;10.32;;;5.90;;
54555;SDS011;57291;37.520;15.106;2022-12-29T11:20:53;11.50;;;5.65;;
54555;SDS011;57291;37.520;15.106;2022-12-29T11:23:32;11.75;;;6.20;;
54555;SDS011;57291;37.520;15.106;2022-12-29T11:26:06;10.82;;;5.68;;
54555;SDS011;57291;37.520;15.106;2022-12-29T11:28:40;10.77;;;6.22;;
54555;SDS011;57291;37.520;15.106;2022-12-29T11:31:09;11.27;;;5.80;;
54555;SDS011;57291;37.520;15.106;2022-12-29T11:33:38;7.07;;;4.75;;
54555;SDS011;57291;37.520;15.106;2022-12-29T11:36:16;10.18;;;5.45;;
54555;SDS011;57291;37.520;15.106;2022-12-29T11:38:47;13.45;;;5.10;;
54555;SDS011;57291;37.520;15.106;2022-12-29T11:41:23;12.23;;;5.50;;
54555;SDS011;57291;37.520;15.106;2022-12-29T11:43:57;11.10;;;5.85;;
54555;SDS011;57291;37.520;15.106;2022-12-29T11:46:28;11.43;;;5.55;;
54555;SDS011;57291;37.520;15.106;2022-12-29T11:48:59;11.27;;;5.68;;
54555;SDS011;57291;37.520;15.106;2022-12-29T11:51:29;10.63;;;5.35;;
54555;SDS011;57291;37.520;15.106;2022-12-29T11:54:05;9.85;;;5.05;;
54555;SDS011;57291;37.520;15.106;2022-12-29T11:56:39;11.68;;;5.07;;
54555;SDS011;57291;37.520;15.106;2022-12-29T12:01:53;10.88;;;6.57;;
54555;SDS011;57291;37.520;15.106;2022-12-29T12:04:23;13.55;;;6.57;;
54555;SDS011;57291;37.520;15.106;2022-12-29T12:12:03;11.95;;;7.22;;
54555;SDS011;57291;37.520;15.106;2022-12-29T12:23:28;15.18;;;8.07;;
54555;SDS011;57291;37.520;15.106;2022-12-29T12:26:10;15.00;;;8.18;;
54555;SDS011;57291;37.520;15.106;2022-12-29T12:31:57;14.10;;;8.10;;
54555;SDS011;57291;37.520;15.106;2022-12-29T12:39:37;14.15;;;9.00;;
54555;SDS011;57291;37.520;15.106;2022-12-29T12:44:50;13.98;;;7.68;;
54555;SDS011;57291;37.520;15.106;2022-12-29T12:55:38;13.32;;;8.45;;
54555;SDS011;57291;37.520;15.106;2022-12-29T13:01:24;13.00;;;8.18;;
54555;SDS011;57291;37.520;15.106;2022-12-29T13:09:29;33.08;;;16.90;;
54555;SDS011;57291;37.520;15.106;2022-12-29T13:12:11;18.63;;;10.32;;
54555;SDS011;57291;37.520;15.106;2022-12-29T13:20:11;16.55;;;9.98;;
54555;SDS011;57291;37.520;15.106;2022-12-29T13:23:13;18.73;;;10.38;;
54555;SDS011;57291;37.520;15.106;2022-12-29T13:25:51;16.02;;;9.40;;
54555;SDS011;57291;37.520;15.106;2022-12-29T13:31:50;15.88;;;9.82;;
54555;SDS011;57291;37.520;15.106;2022-12-29T13:34:05;17.80;;;9.65;;
54555;SDS011;57291;37.520;15.106;2022-12-29T13:37:33;14.32;;;9.32;;
54555;SDS011;57291;37.520;15.106;2022-12-29T13:39:46;11.93;;;8.00;;
54555;SDS011;57291;37.520;15.106;2022-12-29T13:42:18;17.30;;;9.18;;
54555;SDS011;57291;37.520;15.106;2022-12-29T13:44:48;18.95;;;8.93;;
54555;SDS011;57291;37.520;15.106;2022-12-29T13:50:18;15.70;;;9.48;;
54555;SDS011;57291;37.520;15.106;2022-12-29T13:53:01;15.65;;;10.50;;
54555;SDS011;57291;37.520;15.106;2022-12-29T13:58:46;13.90;;;9.27;;
54555;SDS011;57291;37.520;15.106;2022-12-29T14:01:28;16.40;;;9.10;;
54555;SDS011;57291;37.520;15.106;2022-12-29T14:04:02;16.13;;;9.73;;
54555;SDS011;57291;37.520;15.106;2022-12-29T14:06:39;16.42;;;9.82;;
54555;SDS011;57291;37.520;15.106;2022-12-29T14:09:29;17.20;;;10.43;;
54555;SDS011;57291;37.520;15.106;2022-12-29T14:15:14;17.80;;;10.15;;
54555;SDS011;57291;37.520;15.106;2022-12-29T14:18:04;17.45;;;10.77;;
54555;SDS011;57291;37.520;15.106;2022-12-29T14:20:54;19.02;;;11.82;;
54555;SDS011;57291;37.520;15.106;2022-12-29T14:23:34;21.17;;;12.77;;
54555;SDS011;57291;37.520;15.106;2022-12-29T14:28:38;20.38;;;11.63;;
54555;SDS011;57291;37.520;15.106;2022-12-29T14:36:35;21.38;;;13.30;;
54555;SDS011;57291;37.520;15.106;2022-12-29T14:42:36;21.90;;;12.07;;
54555;SDS011;57291;37.520;15.106;2022-12-29T14:44:50;21.92;;;12.50;;
54555;SDS011;57291;37.520;15.106;2022-12-29T14:47:31;19.15;;;12.25;;
54555;SDS011;57291;37.520;15.106;2022-12-29T14:52:54;23.15;;;13.40;;
54555;SDS011;57291;37.520;15.106;2022-12-29T14:55:41;24.77;;;13.65;;
54555;SDS011;57291;37.520;15.106;2022-12-29T15:01:15;26.50;;;14.43;;
54555;SDS011;57291;37.520;15.106;2022-12-29T15:03:45;23.77;;;14.60;;
54555;SDS011;57291;37.520;15.106;2022-12-29T15:06:19;24.77;;;15.13;;
54555;SDS011;57291;37.520;15.106;2022-12-29T15:11:21;27.88;;;15.23;;
54555;SDS011;57291;37.520;15.106;2022-12-29T15:13:50;19.85;;;12.57;;
54555;SDS011;57291;37.520;15.106;2022-12-29T15:16:35;20.63;;;12.68;;
54555;SDS011;57291;37.520;15.106;2022-12-29T15:19:03;23.33;;;14.80;;
54555;SDS011;57291;37.520;15.106;2022-12-29T15:21:33;24.58;;;16.85;;
54555;SDS011;57291;37.520;15.106;2022-12-29T15:24:02;28.90;;;16.30;;
54555;SDS011;57291;37.520;15.106;2022-12-29T15:26:37;23.13;;;15.00;;
54555;SDS011;57291;37.520;15.106;2022-12-29T15:29:27;28.13;;;15.57;;
54555;SDS011;57291;37.520;15.106;2022-12-29T15:32:23;18.35;;;11.73;;
54555;SDS011;57291;37.520;15.106;2022-12-29T15:34:53;26.35;;;15.82;;
54555;SDS011;57291;37.520;15.106;2022-12-29T15:37:25;26.02;;;14.27;;
54555;SDS011;57291;37.520;15.106;2022-12-29T15:40:05;29.77;;;14.50;;
54555;SDS011;57291;37.520;15.106;2022-12-29T15:42:54;32.75;;;16.83;;
54555;SDS011;57291;37.520;15.106;2022-12-29T15:45:30;24.80;;;14.25;;
54555;SDS011;57291;37.520;15.106;2022-12-29T15:48:01;21.38;;;15.20;;
54555;SDS011;57291;37.520;15.106;2022-12-29T15:50:30;24.17;;;14.85;;
54555;SDS011;57291;37.520;15.106;2022-12-29T15:52:59;26.08;;;16.00;;
54555;SDS011;57291;37.520;15.106;2022-12-29T15:55:32;35.67;;;20.15;;
54555;SDS011;57291;37.520;15.106;2022-12-29T15:58:02;31.33;;;19.55;;
54555;SDS011;57291;37.520;15.106;2022-12-29T16:00:32;22.83;;;14.90;;
54555;SDS011;57291;37.520;15.106;2022-12-29T16:03:01;28.45;;;17.15;;
54555;SDS011;57291;37.520;15.106;2022-12-29T16:05:34;27.73;;;19.15;;
54555;SDS011;57291;37.520;15.106;2022-12-29T16:08:03;29.15;;;18.27;;
54555;SDS011;57291;37.520;15.106;2022-12-29T16:10:54;37.53;;;20.75;;
54555;SDS011;57291;37.520;15.106;2022-12-29T16:13:32;29.30;;;18.15;;
54555;SDS011;57291;37.520;15.106;2022-12-29T16:16:11;33.10;;;20.67;;
54555;SDS011;57291;37.520;15.106;2022-12-29T16:18:43;27.95;;;16.58;;
54555;SDS011;57291;37.520;15.106;2022-12-29T16:21:21;29.25;;;17.52;;
54555;SDS011;57291;37.520;15.106;2022-12-29T16:23:53;27.98;;;18.40;;
54555;SDS011;57291;37.520;15.106;2022-12-29T16:26:22;31.77;;;19.00;;
54555;SDS011;57291;37.520;15.106;2022-12-29T16:28:52;27.92;;;19.10;;
54555;SDS011;57291;37.520;15.106;2022-12-29T16:31:23;28.92;;;18.63;;
54555;SDS011;57291;37.520;15.106;2022-12-29T16:34:09;27.83;;;18.20;;
54555;SDS011;57291;37.520;15.106;2022-12-29T16:39:52;35.80;;;22.17;;
54555;SDS011;57291;37.520;15.106;2022-12-29T16:50:52;43.47;;;26.33;;
54555;SDS011;57291;37.520;15.106;2022-12-29T16:53:36;35.33;;;22.70;;
54555;SDS011;57291;37.520;15.106;2022-12-29T16:56:08;42.92;;;24.98;;
54555;SDS011;57291;37.520;15.106;2022-12-29T16:58:47;43.75;;;26.83;;
54555;SDS011;57291;37.520;15.106;2022-12-29T17:01:16;62.13;;;35.95;;
54555;SDS011;57291;37.520;15.106;2022-12-29T17:03:52;51.83;;;31.55;;
54555;SDS011;57291;37.520;15.106;2022-12-29T17:06:23;33.10;;;21.73;;
54555;SDS011;57291;37.520;15.106;2022-12-29T17:08:51;43.47;;;27.25;;
54555;SDS011;57291;37.520;15.106;2022-12-29T17:11:23;39.50;;;24.45;;
54555;SDS011;57291;37.520;15.106;2022-12-29T17:17:11;38.47;;;21.52;;
54555;SDS011;57291;37.520;15.106;2022-12-29T17:19:39;34.72;;;20.33;;
54555;SDS011;57291;37.520;15.106;2022-12-29T17:22:12;38.58;;;22.73;;
54555;SDS011;57291;37.520;15.106;2022-12-29T17:24:43;33.10;;;21.42;;